Time;durP1;ratioP1;P1;durP2;ratioP2;P2;SDS_P1;SDS_P2;PMS_P1;PMS_P2;Temp;Humidity;BMP_temperature;BMP_pressure;BME280_temperature;BME280_humidity;BME280_pressure;Samples;Min_cycle;Max_cycle;Signal;HPM_P1;HPM_P2
2022/12/13 00:01:27;;;;;;;21.08;11.90;;;;;;;-9.51;100.00;96632.00;5032092;28;20049;-64
2022/12/13 00:03:55;;;;;;;26.92;11.32;;;;;;;-9.49;100.00;96630.06;5048802;28;20135;-64
2022/12/13 00:06:23;;;;;;;27.90;12.65;;;;;;;-9.70;100.00;96629.31;5040328;28;20412;-64
2022/12/13 00:08:49;;;;;;;21.95;11.68;;;;;;;-9.88;100.00;96623.97;5055805;28;20058;-64
2022/12/13 00:11:16;;;;;;;19.65;10.73;;;;;;;-9.92;100.00;96630.44;5052047;28;20051;-64
2022/12/13 00:13:45;;;;;;;23.42;11.48;;;;;;;-9.96;100.00;96623.84;5040148;28;20095;-64
2022/12/13 00:16:14;;;;;;;18.58;10.82;;;;;;;-9.89;100.00;96624.13;5029393;28;20053;-64
2022/12/13 00:18:41;;;;;;;21.70;12.38;;;;;;;-9.79;100.00;96624.91;5047766;28;20049;-64
2022/12/13 00:21:12;;;;;;;25.08;11.52;;;;;;;-9.79;100.00;96632.78;5034572;28;20088;-64
2022/12/13 00:23:39;;;;;;;23.55;12.40;;;;;;;-9.71;100.00;96624.19;5046431;28;20044;-64
2022/12/13 00:26:11;;;;;;;16.02;10.23;;;;;;;-9.73;100.00;96631.41;5045452;28;20832;-64
2022/12/13 00:28:38;;;;;;;21.85;11.20;;;;;;;-9.85;100.00;96626.31;5034193;28;20467;-64
2022/12/13 00:31:06;;;;;;;20.05;11.77;;;;;;;-9.98;100.00;96626.63;5026860;28;20057;-64
2022/12/13 00:33:53;;;;;;;21.42;11.60;;;;;;;-10.10;100.00;96627.75;5039541;28;20049;-64
2022/12/13 00:36:19;;;;;;;22.40;12.27;;;;;;;-10.05;100.00;96620.28;5046876;28;20319;-64
2022/12/13 00:38:46;;;;;;;23.02;12.80;;;;;;;-9.99;100.00;96619.72;5046539;28;20037;-64
2022/12/13 00:41:15;;;;;;;23.40;9.85;;;;;;;-10.00;100.00;96619.88;5028147;28;20037;-63
2022/12/13 00:43:42;;;;;;;23.88;11.70;;;;;;;-10.06;100.00;96614.22;5045098;28;20049;-63
2022/12/13 00:46:13;;;;;;;24.80;11.70;;;;;;;-10.02;100.00;96613.94;5045237;28;20454;-63
2022/12/13 00:48:43;;;;;;;22.98;11.93;;;;;;;-9.93;100.00;96615.72;5042226;28;20044;-63
2022/12/13 00:51:10;;;;;;;17.77;10.10;;;;;;;-9.98;100.00;96603.06;5047309;28;20067;-63
2022/12/13 00:53:37;;;;;;;20.38;11.05;;;;;;;-10.00;100.00;96598.94;5047202;28;20508;-63
2022/12/13 00:56:09;;;;;;;22.90;12.73;;;;;;;-10.01;100.00;96597.25;5047197;28;20045;-63
2022/12/13 00:58:35;;;;;;;26.08;12.07;;;;;;;-9.68;100.00;96589.84;5048244;28;20459;-63
2022/12/13 01:01:07;;;;;;;21.88;13.43;;;;;;;-9.80;100.00;96592.66;5043196;28;20041;-63
2022/12/13 01:03:34;;;;;;;20.10;10.40;;;;;;;-9.85;100.00;96589.63;5043480;28;20247;-63
2022/12/13 01:06:07;;;;;;;16.83;11.10;;;;;;;-9.97;100.00;96585.53;5047177;28;20357;-63
2022/12/13 01:08:43;;;;;;;17.15;9.82;;;;;;;-10.02;100.00;96582.53;5046368;28;20522;-63
2022/12/13 01:11:11;;;;;;;18.67;11.10;;;;;;;-9.85;100.00;96579.16;5047156;28;20459;-63
2022/12/13 01:13:38;;;;;;;18.35;10.27;;;;;;;-9.98;100.00;96579.50;5036394;28;20291;-63
2022/12/13 01:16:06;;;;;;;19.33;10.65;;;;;;;-10.08;100.00;96584.75;5027901;28;20046;-63
2022/12/13 01:18:34;;;;;;;17.88;10.98;;;;;;;-10.04;100.00;96594.94;5041389;28;20500;-63
2022/12/13 01:21:06;;;;;;;24.73;12.35;;;;;;;-10.19;100.00;96592.75;5027802;28;20033;-63
2022/12/13 01:23:33;;;;;;;22.33;11.05;;;;;;;-10.22;100.00;96593.00;5046488;28;20459;-63
2022/12/13 01:26:05;;;;;;;22.85;10.82;;;;;;;-10.12;100.00;96596.47;5027533;28;20046;-63
2022/12/13 01:28:32;;;;;;;23.48;13.15;;;;;;;-10.12;100.00;96591.22;5040969;28;20052;-63
2022/12/13 01:31:05;;;;;;;23.77;11.35;;;;;;;-10.13;100.00;96594.81;5043307;28;20042;-63
2022/12/13 01:33:32;;;;;;;20.73;9.65;;;;;;;-10.36;100.00;96595.09;5040411;28;20523;-63
2022/12/13 01:36:01;;;;;;;25.42;12.50;;;;;;;-10.26;100.00;96589.03;5047544;28;20571;-63
2022/12/13 01:38:28;;;;;;;22.52;13.13;;;;;;;-10.12;100.00;96587.78;5041944;28;20114;-63
2022/12/13 01:40:57;;;;;;;23.23;12.25;;;;;;;-10.30;100.00;96591.09;5036544;28;20056;-63
2022/12/13 01:43:52;;;;;;;20.42;11.90;;;;;;;-10.37;100.00;96590.84;5039549;28;20500;-63
2022/12/13 01:46:18;;;;;;;22.50;11.35;;;;;;;-10.31;100.00;96592.88;5042016;28;20429;-63
2022/12/13 01:49:09;;;;;;;28.33;11.95;;;;;;;-10.31;100.00;96586.84;5038634;28;20099;-63
2022/12/13 01:52:04;;;;;;;26.80;12.60;;;;;;;-10.37;100.00;96585.59;5027393;28;20045;-63
2022/12/13 01:54:35;;;;;;;22.23;10.88;;;;;;;-10.26;100.00;96582.00;5027738;28;20091;-63
2022/12/13 01:57:06;;;;;;;26.75;12.82;;;;;;;-10.33;100.00;96576.50;5037951;28;20072;-63
2022/12/13 01:59:34;;;;;;;24.38;13.18;;;;;;;-10.15;100.00;96582.84;5047875;28;20059;-63
2022/12/13 02:02:01;;;;;;;21.48;12.02;;;;;;;-10.18;100.00;96576.06;5030539;28;20041;-63
2022/12/13 02:05:06;;;;;;;24.63;13.18;;;;;;;-10.11;100.00;96565.84;5046912;28;20550;-63
2022/12/13 02:07:35;;;;;;;22.25;11.65;;;;;;;-10.28;100.00;96567.41;5042040;28;20356;-63
2022/12/13 02:10:05;;;;;;;27.38;12.18;;;;;;;-10.34;100.00;96564.41;5045575;28;20497;-63
2022/12/13 02:12:33;;;;;;;23.13;11.52;;;;;;;-9.50;100.00;96557.66;5041885;28;20537;-63
2022/12/13 02:15:03;;;;;;;26.45;12.13;;;;;;;-9.66;99.37;96559.09;5027316;28;20480;-63
2022/12/13 02:18:01;;;;;;;22.83;11.27;;;;;;;-9.89;98.86;96558.66;5045000;28;20045;-63
2022/12/13 02:20:36;;;;;;;20.65;12.35;;;;;;;-10.39;100.00;96561.38;5028106;28;20360;-63
2022/12/13 02:23:36;;;;;;;21.55;12.38;;;;;;;-10.33;100.00;96565.19;5052107;28;20047;-63
2022/12/13 02:26:27;;;;;;;22.58;12.13;;;;;;;-10.42;100.00;96558.19;5053915;28;20045;-63
2022/12/13 02:28:59;;;;;;;23.92;12.52;;;;;;;-10.48;100.00;96560.44;5046274;28;20118;-63
2022/12/13 02:31:39;;;;;;;33.15;10.80;;;;;;;-10.58;100.00;96555.22;5027322;28;20489;-63
2022/12/13 02:34:12;;;;;;;29.20;12.45;;;;;;;-10.54;100.00;96566.25;5040660;28;20106;-63
2022/12/13 02:36:48;;;;;;;23.52;12.30;;;;;;;-10.62;100.00;96559.06;5045576;28;20052;-63
2022/12/13 02:39:26;;;;;;;20.00;10.85;;;;;;;-10.56;100.00;96562.09;5041427;28;20041;-63
2022/12/13 02:42:04;;;;;;;20.35;13.43;;;;;;;-10.49;100.00;96550.13;5026945;28;20049;-63
2022/12/13 02:44:42;;;;;;;27.38;13.82;;;;;;;-10.27;100.00;96550.72;5043878;28;20048;-63
2022/12/13 02:47:22;;;;;;;27.40;14.13;;;;;;;-10.38;100.00;96556.94;5045192;28;20125;-63
2022/12/13 02:49:51;;;;;;;19.58;12.40;;;;;;;-10.43;100.00;96559.16;5043188;28;20102;-63
2022/12/13 02:52:21;;;;;;;21.02;11.93;;;;;;;-10.53;100.00;96554.81;5044716;28;20144;-63
2022/12/13 02:54:48;;;;;;;20.83;10.52;;;;;;;-10.44;100.00;96553.13;5045594;28;20390;-63
2022/12/13 02:57:37;;;;;;;26.58;12.90;;;;;;;-10.53;100.00;96551.34;5031524;28;20072;-63
2022/12/13 03:00:12;;;;;;;22.08;12.13;;;;;;;-10.65;100.00;96553.31;5044270;28;20059;-63
2022/12/13 03:03:17;;;;;;;27.02;13.75;;;;;;;-10.56;100.00;96543.78;5026613;28;20050;-63
2022/12/13 03:09:24;;;;;;;23.02;11.05;;;;;;;-10.68;100.00;96535.25;5045650;28;20045;-63
2022/12/13 03:15:18;;;;;;;20.65;10.55;;;;;;;-10.46;100.00;96521.06;5044039;28;20098;-63
2022/12/13 03:17:52;;;;;;;18.40;11.70;;;;;;;-10.58;100.00;96523.00;5016456;28;20168;-63
2022/12/13 03:20:23;;;;;;;23.05;11.35;;;;;;;-10.66;100.00;96521.06;5040566;28;20037;-63
2022/12/13 03:22:51;;;;;;;25.85;13.25;;;;;;;-10.81;100.00;96523.28;5044284;28;20081;-63
2022/12/13 03:25:20;;;;;;;23.35;11.82;;;;;;;-10.86;100.00;96522.88;5037938;28;20103;-63
2022/12/13 03:27:58;;;;;;;22.45;12.93;;;;;;;-10.92;100.00;96528.66;5027351;28;20049;-63
2022/12/13 03:30:27;;;;;;;21.38;10.50;;;;;;;-10.78;100.00;96530.03;5047152;28;20049;-63
2022/12/13 03:32:54;;;;;;;20.33;9.82;;;;;;;-10.77;100.00;96523.84;5033414;28;20041;-63
2022/12/13 03:35:21;;;;;;;22.83;10.85;;;;;;;-10.75;100.00;96520.13;5049809;28;20099;-63
2022/12/13 03:37:48;;;;;;;23.27;14.07;;;;;;;-10.77;100.00;96519.44;5052442;28;20041;-63
2022/12/13 03:40:17;;;;;;;23.60;10.82;;;;;;;-10.86;100.00;96515.88;5037089;28;20118;-64
2022/12/13 03:42:44;;;;;;;18.83;11.25;;;;;;;-10.99;100.00;96516.13;5032050;28;20042;-63
2022/12/13 03:45:11;;;;;;;26.13;12.88;;;;;;;-11.02;100.00;96515.59;5052280;28;20045;-63
2022/12/13 03:47:38;;;;;;;23.13;10.88;;;;;;;-11.01;100.00;96518.06;5044652;28;20048;-63
2022/12/13 03:50:05;;;;;;;26.52;13.52;;;;;;;-11.18;100.00;96514.34;5045488;28;20456;-63
2022/12/13 03:52:58;;;;;;;29.73;10.88;;;;;;;-11.12;100.00;96520.81;5032749;28;20042;-63
2022/12/13 03:55:25;;;;;;;24.80;13.25;;;;;;;-10.92;100.00;96499.91;5031509;28;20068;-63
2022/12/13 03:57:51;;;;;;;21.65;14.02;;;;;;;-10.74;100.00;96492.16;5040761;28;20102;-63
2022/12/13 04:00:18;;;;;;;24.40;12.50;;;;;;;-10.73;100.00;96499.06;5038292;28;20055;-63
2022/12/13 04:02:45;;;;;;;23.42;11.48;;;;;;;-10.97;100.00;96503.75;5039435;28;20072;-63
2022/12/13 04:05:11;;;;;;;21.20;11.57;;;;;;;-11.08;100.00;96506.50;5051793;28;20624;-63
2022/12/13 04:07:39;;;;;;;24.90;12.60;;;;;;;-11.04;100.00;96509.66;5042796;28;20049;-63
2022/12/13 04:10:14;;;;;;;25.88;12.88;;;;;;;-10.95;100.00;96508.81;5050928;28;20177;-63
2022/12/13 04:15:38;;;;;;;25.77;13.82;;;;;;;-11.21;100.00;96506.75;5051761;28;20463;-63
2022/12/13 04:18:05;;;;;;;21.80;11.75;;;;;;;-11.16;100.00;96509.81;5038882;28;20080;-63
2022/12/13 04:20:32;;;;;;;25.15;11.95;;;;;;;-11.04;100.00;96509.66;5031539;28;20041;-63
2022/12/13 04:22:58;;;;;;;20.58;12.02;;;;;;;-10.97;100.00;96516.00;5040619;28;20128;-63
2022/12/13 04:25:25;;;;;;;19.83;12.23;;;;;;;-10.91;100.00;96510.19;5051328;28;20060;-63
2022/12/13 04:27:52;;;;;;;21.88;12.65;;;;;;;-11.19;100.00;96511.84;5050808;28;20072;-63
2022/12/13 04:30:18;;;;;;;19.83;11.77;;;;;;;-11.24;100.00;96512.28;5044372;28;20052;-63
2022/12/13 04:32:45;;;;;;;29.40;13.18;;;;;;;-11.24;100.00;96500.00;5031995;28;20041;-63
2022/12/13 04:35:11;;;;;;;31.02;16.23;;;;;;;-11.27;100.00;96510.75;5048317;28;20045;-63
2022/12/13 04:37:39;;;;;;;31.98;15.90;;;;;;;-11.14;100.00;96507.03;5044104;28;20047;-63
2022/12/13 04:40:09;;;;;;;18.40;11.27;;;;;;;-11.15;100.00;96501.00;5047428;28;20083;-63
2022/12/13 04:42:36;;;;;;;23.38;13.00;;;;;;;-11.10;100.00;96506.63;5045602;28;20033;-63
2022/12/13 04:45:03;;;;;;;23.77;12.20;;;;;;;-11.10;100.00;96501.41;5048451;28;20045;-63
2022/12/13 04:47:30;;;;;;;23.80;14.45;;;;;;;-11.02;100.00;96498.09;5032144;28;20038;-63
2022/12/13 04:49:56;;;;;;;23.67;11.52;;;;;;;-11.04;100.00;96499.19;5028460;28;20350;-63
2022/12/13 04:52:23;;;;;;;19.80;12.48;;;;;;;-11.01;100.00;96504.16;5030052;28;20072;-63
2022/12/13 04:54:50;;;;;;;32.00;16.13;;;;;;;-10.89;100.00;96508.28;5040536;28;20049;-63
2022/12/13 04:57:21;;;;;;;;;;;;;;;-11.02;100.00;96503.31;5048610;28;20048;-63
2022/12/13 04:59:48;;;;;;;25.23;11.90;;;;;;;-10.96;100.00;96501.94;5040599;28;19921;-63
2022/12/13 05:02:15;;;;;;;23.23;10.60;;;;;;;-10.96;100.00;96507.19;5036295;28;20131;-64
2022/12/13 05:04:50;;;;;;;26.95;10.55;;;;;;;-10.95;100.00;96508.81;5048298;28;20072;-63
2022/12/13 05:07:22;;;;;;;24.63;12.95;;;;;;;-10.99;100.00;96495.22;5032980;28;20044;-63
2022/12/13 05:09:48;;;;;;;23.48;11.98;;;;;;;-11.02;100.00;96497.28;5048020;28;20102;-63
2022/12/13 05:12:15;;;;;;;21.13;11.40;;;;;;;-11.10;100.00;96496.19;5042875;28;20121;-63
2022/12/13 05:14:49;;;;;;;18.65;10.98;;;;;;;-11.04;100.00;96496.59;5039293;28;20124;-63
2022/12/13 05:17:16;;;;;;;26.48;10.77;;;;;;;-11.06;100.00;96501.13;5046190;28;20099;-63
2022/12/13 05:19:42;;;;;;;26.35;12.00;;;;;;;-11.16;100.00;96498.50;5031413;28;20416;-63
2022/12/13 05:22:15;;;;;;;19.75;11.45;;;;;;;-11.21;100.00;96491.06;5032951;28;20037;-63
2022/12/13 05:24:46;;;;;;;20.20;12.10;;;;;;;-11.23;100.00;96500.84;5049443;28;20037;-63
2022/12/13 05:27:13;;;;;;;23.08;11.40;;;;;;;-11.02;100.00;96487.63;5047093;28;20056;-63
2022/12/13 05:29:54;;;;;;;23.48;10.98;;;;;;;-11.12;100.00;96489.44;5035113;28;20049;-63
2022/12/13 05:32:35;;;;;;;21.55;14.05;;;;;;;-11.06;100.00;96494.09;5046568;28;20033;-63
2022/12/13 05:35:14;;;;;;;23.90;14.05;;;;;;;-11.04;100.00;96494.81;5046632;28;20041;-63
2022/12/13 05:37:51;;;;;;;21.58;12.55;;;;;;;-11.06;100.00;96483.66;5035096;28;20488;-63
2022/12/13 05:40:24;;;;;;;24.40;13.43;;;;;;;-11.06;100.00;96488.88;5033490;28;20501;-63
2022/12/13 05:42:51;;;;;;;21.50;11.03;;;;;;;-11.02;100.00;96486.81;5046884;28;20523;-63
2022/12/13 05:45:27;;;;;;;23.10;12.13;;;;;;;-11.19;100.00;96483.94;5042889;28;20045;-63
2022/12/13 05:47:53;;;;;;;23.95;12.85;;;;;;;-11.23;100.00;96487.78;5046754;28;20133;-63
2022/12/13 05:50:20;;;;;;;26.35;11.23;;;;;;;-11.23;100.00;96483.38;5047234;28;20041;-63
2022/12/13 05:52:48;;;;;;;22.92;11.85;;;;;;;-11.14;100.00;96479.13;5027155;28;20080;-63
2022/12/13 05:55:15;;;;;;;21.83;12.45;;;;;;;-11.19;100.00;96483.09;5039968;28;20041;-63
2022/12/13 05:57:42;;;;;;;19.10;9.50;;;;;;;-11.24;100.00;96478.28;5045981;28;20041;-63
2022/12/13 06:00:17;;;;;;;27.58;13.23;;;;;;;-11.10;100.00;96480.50;5041571;28;20047;-63
2022/12/13 06:02:56;;;;;;;24.88;11.70;;;;;;;-11.15;100.00;96477.47;5026720;28;20080;-63
2022/12/13 06:05:28;;;;;;;23.65;12.77;;;;;;;-11.00;100.00;96475.25;5041048;28;20037;-63
2022/12/13 06:07:55;;;;;;;19.60;10.10;;;;;;;-11.08;100.00;96474.28;5037527;28;20072;-63
2022/12/13 06:10:23;;;;;;;20.05;10.52;;;;;;;-11.19;100.00;96483.09;5059040;28;20320;-63
2022/12/13 06:12:50;;;;;;;19.95;10.90;;;;;;;-11.30;100.00;96478.81;5032674;28;20036;-63
2022/12/13 06:15:16;;;;;;;20.60;11.25;;;;;;;-11.18;100.00;96471.69;5053189;28;20044;-63
2022/12/13 06:17:48;;;;;;;25.38;13.77;;;;;;;-11.30;100.00;96477.06;5039681;28;20041;-63
2022/12/13 06:20:15;;;;;;;22.48;11.77;;;;;;;-10.95;100.00;96481.88;5042840;28;20574;-63
2022/12/13 06:22:51;;;;;;;23.65;12.98;;;;;;;-11.09;100.00;96470.88;5046137;28;20037;-63
2022/12/13 06:25:18;;;;;;;19.33;10.18;;;;;;;-11.11;100.00;96473.63;5037391;28;20492;-63
2022/12/13 06:27:58;;;;;;;18.42;10.98;;;;;;;-11.17;100.00;96474.16;5045868;28;20049;-63
2022/12/13 06:30:28;;;;;;;23.08;10.75;;;;;;;-11.05;98.92;96474.03;5040001;28;20052;-64
2022/12/13 06:32:55;;;;;;;22.48;11.63;;;;;;;-11.29;100.00;96477.84;5043497;28;20780;-63
2022/12/13 06:35:21;;;;;;;19.90;10.35;;;;;;;-11.29;100.00;96478.69;5037555;28;20175;-63
2022/12/13 06:37:56;;;;;;;22.50;11.43;;;;;;;-11.31;100.00;96471.97;5045967;28;20044;-63
2022/12/13 06:40:30;;;;;;;23.60;10.95;;;;;;;-11.23;100.00;96467.72;5036143;28;20458;-63
2022/12/13 06:42:57;;;;;;;24.27;12.32;;;;;;;-11.17;100.00;96475.97;5035840;28;20104;-63
2022/12/13 06:45:24;;;;;;;24.17;12.00;;;;;;;-11.35;100.00;96476.66;5039418;28;20065;-63
2022/12/13 06:47:51;;;;;;;93.00;42.85;;;;;;;-11.26;100.00;96485.44;5043984;28;20045;-63
2022/12/13 06:50:17;;;;;;;30.77;18.52;;;;;;;-11.24;100.00;96484.34;5039832;28;20080;-64
2022/12/13 06:52:47;;;;;;;30.77;15.93;;;;;;;-11.26;100.00;96488.03;5052954;28;20044;-63
2022/12/13 06:55:13;;;;;;;39.90;24.52;;;;;;;-11.27;100.00;96483.78;5038226;28;20072;-63
2022/12/13 06:57:49;;;;;;;22.95;13.23;;;;;;;-11.44;100.00;96488.72;5035474;28;20071;-64
2022/12/13 07:00:15;;;;;;;19.92;10.68;;;;;;;-11.51;100.00;96491.06;5052669;28;20407;-64
2022/12/13 07:02:55;;;;;;;21.92;11.30;;;;;;;-11.44;100.00;96501.78;5036535;28;20044;-65
2022/12/13 07:05:22;;;;;;;20.33;12.25;;;;;;;-11.33;100.00;96497.41;5036425;28;20044;-63
2022/12/13 07:07:48;;;;;;;23.75;11.43;;;;;;;-11.21;100.00;96504.13;5044455;28;20052;-64
2022/12/13 07:10:15;;;;;;;18.70;10.60;;;;;;;-11.06;100.00;96496.72;5043493;28;20044;-64
2022/12/13 07:12:48;;;;;;;34.97;15.05;;;;;;;-11.14;100.00;96504.41;5040104;28;20045;-64
2022/12/13 07:15:15;;;;;;;29.00;12.15;;;;;;;-11.23;100.00;96504.31;5030171;28;20045;-64
2022/12/13 07:17:41;;;;;;;33.05;14.77;;;;;;;-11.00;100.00;96509.25;5044941;28;20045;-64
2022/12/13 07:20:09;;;;;;;33.70;17.50;;;;;;;-11.08;100.00;96508.28;5040019;28;20566;-64
2022/12/13 07:22:37;;;;;;;26.08;12.32;;;;;;;-11.07;100.00;96508.16;5027584;28;20037;-60
2022/12/13 07:25:13;;;;;;;31.88;13.93;;;;;;;-11.23;100.00;96504.31;5036318;28;20049;-60
2022/12/13 07:28:04;;;;;;;28.35;16.60;;;;;;;-11.21;100.00;96498.09;5034159;28;20041;-60
2022/12/13 07:30:36;;;;;;;35.28;14.43;;;;;;;-11.15;100.00;96506.22;5027052;28;20048;-61
2022/12/13 07:33:08;;;;;;;29.52;15.15;;;;;;;-11.01;100.00;96510.22;5035961;28;20269;-59
2022/12/13 07:35:35;;;;;;;31.60;15.85;;;;;;;-11.04;100.00;96509.66;5034499;28;20037;-61
2022/12/13 07:38:05;;;;;;;24.58;13.95;;;;;;;-10.94;100.00;96515.72;5041010;28;20044;-60
2022/12/13 07:40:33;;;;;;;29.67;17.17;;;;;;;-10.82;100.00;96518.19;5041814;28;20045;-59
2022/12/13 07:43:00;;;;;;;30.38;15.40;;;;;;;-10.68;100.00;96519.56;5039415;28;20037;-57
2022/12/13 07:45:27;;;;;;;24.65;12.32;;;;;;;-10.66;100.00;96520.25;5034443;28;20116;-60
2022/12/13 07:47:54;;;;;;;28.67;16.33;;;;;;;-10.56;100.00;96523.69;5043689;28;20504;-59
2022/12/13 07:50:21;;;;;;;31.05;14.85;;;;;;;-10.58;100.00;96528.25;5042300;28;20127;-60
2022/12/13 07:52:52;;;;;;;28.38;14.50;;;;;;;-10.65;100.00;96525.34;5035097;28;20084;-60
2022/12/13 07:55:20;;;;;;;29.25;13.88;;;;;;;-10.65;100.00;96535.81;5044119;28;20056;-60
2022/12/13 07:58:04;;;;;;;26.73;15.82;;;;;;;-10.46;100.00;96534.13;5042548;28;20110;-60
2022/12/13 08:00:31;;;;;;;28.02;13.07;;;;;;;-10.31;100.00;96535.31;5029901;28;20121;-60
2022/12/13 08:02:59;;;;;;;22.85;13.38;;;;;;;-10.08;100.00;96537.59;5024103;28;20069;-61
2022/12/13 08:05:27;;;;;;;28.20;16.35;;;;;;;-10.06;100.00;96530.41;5032981;28;20045;-58
2022/12/13 08:07:53;;;;;;;34.03;17.02;;;;;;;-10.18;100.00;96531.56;5039776;28;20099;-59
2022/12/13 08:10:20;;;;;;;26.17;15.20;;;;;;;-10.19;100.00;96530.75;5043174;28;20141;-60
2022/12/13 08:12:48;;;;;;;31.13;16.67;;;;;;;-10.18;100.00;96531.56;5034855;28;20037;-59
2022/12/13 08:15:16;;;;;;;32.33;16.38;;;;;;;-10.11;100.00;96535.25;5038920;28;20044;-61
2022/12/13 08:17:42;;;;;;;27.40;15.50;;;;;;;-10.04;100.00;96530.28;5039045;28;20091;-57
2022/12/13 08:20:09;;;;;;;34.10;18.90;;;;;;;-9.93;100.00;96537.97;5038258;28;20041;-58
2022/12/13 08:22:36;;;;;;;37.50;17.67;;;;;;;-9.90;100.00;96530.78;5031629;28;20068;-57
2022/12/13 08:25:03;;;;;;;38.40;18.70;;;;;;;-9.86;100.00;96532.13;5034285;28;20044;-56
2022/12/13 08:27:29;;;;;;;36.00;18.27;;;;;;;-9.87;100.00;96533.94;5033676;28;20049;-52
2022/12/13 08:29:56;;;;;;;34.05;18.35;;;;;;;-9.55;100.00;96526.66;5042494;28;20047;-54
2022/12/13 08:32:23;;;;;;;37.88;18.35;;;;;;;-9.42;100.00;96526.28;5031943;28;20064;-55
2022/12/13 08:34:50;;;;;;;36.72;20.50;;;;;;;-9.37;100.00;96526.66;5042258;28;20111;-55
2022/12/13 08:37:16;;;;;;;25.92;17.65;;;;;;;-9.56;100.00;96522.34;5035499;28;20076;-57
2022/12/13 08:39:46;;;;;;;54.67;28.65;;;;;;;-9.20;100.00;96527.69;5028269;28;20060;-55
2022/12/13 08:42:15;;;;;;;31.77;18.45;;;;;;;-8.87;99.98;96532.41;5026798;28;20049;-59
2022/12/13 08:44:49;;;;;;;33.15;18.55;;;;;;;-8.87;98.26;96535.03;5039882;28;20971;-60
2022/12/13 08:47:22;;;;;;;32.70;17.85;;;;;;;-9.07;100.00;96529.91;5030396;28;20045;-55
2022/12/13 08:50:00;;;;;;;29.40;14.52;;;;;;;-9.04;100.00;96536.66;5039093;28;20053;-59
2022/12/13 08:52:34;;;;;;;27.83;14.55;;;;;;;-8.99;100.00;96531.81;5038556;28;20087;-55
2022/12/13 08:55:11;;;;;;;26.95;15.07;;;;;;;-8.94;100.00;96526.09;5037817;28;20075;-56
2022/12/13 08:57:39;;;;;;;21.65;13.18;;;;;;;-8.76;100.00;96529.56;5045937;28;20099;-57
2022/12/13 09:00:07;;;;;;;26.70;16.73;;;;;;;-8.56;100.00;96531.22;5042605;28;20048;-58
2022/12/13 09:02:34;;;;;;;30.67;17.90;;;;;;;-8.41;100.00;96534.88;5030673;28;20635;-53
2022/12/13 09:05:06;;;;;;;29.85;15.27;;;;;;;-8.24;100.00;96535.00;5029647;28;20049;-58
2022/12/13 09:07:34;;;;;;;29.95;15.65;;;;;;;-8.07;100.00;96530.69;5044620;28;20581;-56
2022/12/13 09:10:02;;;;;;;20.48;12.10;;;;;;;-7.73;100.00;96522.00;5044298;28;20052;-56
2022/12/13 09:12:48;;;;;;;22.88;14.38;;;;;;;-7.59;100.00;96523.19;5032017;28;20063;-56
2022/12/13 09:15:15;;;;;;;25.25;13.00;;;;;;;-7.45;99.26;96523.56;5039982;28;20527;-57
2022/12/13 09:17:48;;;;;;;30.85;14.57;;;;;;;-7.41;99.38;96526.72;5037737;28;20040;-56
2022/12/13 09:20:18;;;;;;;30.20;14.52;;;;;;;-7.43;98.46;96529.50;5041003;28;20459;-57
2022/12/13 09:22:56;;;;;;;18.42;12.38;;;;;;;-7.27;98.09;96528.72;5040345;28;20048;-59
2022/12/13 09:25:30;;;;;;;26.95;12.45;;;;;;;-7.32;97.79;96523.13;5039558;28;20059;-53
2022/12/13 09:28:07;;;;;;;26.10;13.38;;;;;;;-7.10;98.42;96515.63;5039046;28;20052;-57
2022/12/13 09:30:35;;;;;;;25.10;13.30;;;;;;;-7.12;97.90;96523.66;5029964;28;20045;-57
2022/12/13 09:33:02;;;;;;;22.30;13.15;;;;;;;-7.12;98.38;96522.88;5031800;28;20574;-58
2022/12/13 09:35:49;;;;;;;21.17;11.77;;;;;;;-6.96;97.79;96527.34;5037793;28;20472;-57
2022/12/13 09:38:15;;;;;;;24.65;13.82;;;;;;;-6.79;97.28;96530.81;5026864;28;20392;-58
2022/12/13 09:40:46;;;;;;;27.10;13.77;;;;;;;-6.66;96.48;96532.97;5039097;28;20512;-59
2022/12/13 09:43:23;;;;;;;25.75;12.70;;;;;;;-6.67;95.23;96528.69;5035507;28;20033;-59
2022/12/13 09:46:04;;;;;;;24.17;12.43;;;;;;;-6.81;96.23;96532.78;5029234;28;20064;-58
2022/12/13 09:48:52;;;;;;;23.20;12.40;;;;;;;-6.82;97.16;96533.78;5038287;28;20528;-56
2022/12/13 09:51:28;;;;;;;24.38;12.98;;;;;;;-6.82;96.94;96531.94;5038754;28;20052;-57
2022/12/13 09:54:17;;;;;;;28.15;13.02;;;;;;;-6.75;97.24;96533.94;5027341;28;20037;-59
2022/12/13 09:56:49;;;;;;;26.63;12.48;;;;;;;-6.57;95.99;96531.97;5040278;28;20534;-59
2022/12/13 09:59:35;;;;;;;22.42;11.90;;;;;;;-6.49;95.23;96525.06;5035788;28;20065;-59
2022/12/13 10:02:14;;;;;;;21.77;12.23;;;;;;;-6.45;95.05;96531.66;5038624;28;20476;-55
2022/12/13 10:04:42;;;;;;;18.77;10.10;;;;;;;-6.46;95.19;96520.28;5040129;28;20511;-57
2022/12/13 10:07:20;;;;;;;27.30;13.00;;;;;;;-6.38;94.71;96518.66;5032045;28;20037;-59
2022/12/13 10:09:48;;;;;;;25.50;13.57;;;;;;;-6.44;95.51;96515.69;5031834;28;20482;-58
2022/12/13 10:12:16;;;;;;;24.80;10.98;;;;;;;-6.32;95.15;96510.91;5039174;28;20059;-61
2022/12/13 10:14:50;;;;;;;25.63;13.43;;;;;;;-6.40;94.80;96506.47;5040680;28;20128;-55
2022/12/13 10:17:21;;;;;;;26.17;13.52;;;;;;;-6.36;94.79;96498.22;5031918;28;20044;-58
2022/12/13 10:19:51;;;;;;;27.45;12.82;;;;;;;-6.33;95.47;96501.34;5030558;28;20072;-62
2022/12/13 10:22:21;;;;;;;27.40;12.82;;;;;;;-6.29;95.83;96494.78;5028259;28;20049;-62
2022/12/13 10:25:04;;;;;;;29.50;15.02;;;;;;;-6.22;95.57;96502.81;5037352;28;20041;-57
2022/12/13 10:27:44;;;;;;;36.38;15.27;;;;;;;-6.23;96.07;96493.25;5038170;28;20558;-56
2022/12/13 10:30:14;;;;;;;26.45;13.73;;;;;;;-6.26;95.54;96493.59;5042360;28;20159;-58
2022/12/13 10:33:03;;;;;;;28.53;14.87;;;;;;;-6.22;94.89;96486.19;5044739;28;20053;-58
2022/12/13 10:35:33;;;;;;;21.75;12.25;;;;;;;-6.02;95.33;96487.44;5034235;28;20295;-55
2022/12/13 10:38:25;;;;;;;20.92;12.07;;;;;;;-5.84;93.84;96488.19;5044123;28;20045;-56
2022/12/13 10:40:57;;;;;;;23.92;11.18;;;;;;;-5.80;93.13;96484.22;5026997;28;20048;-58
2022/12/13 10:43:29;;;;;;;18.38;10.98;;;;;;;-5.83;93.36;96476.69;5040894;28;20032;-59
2022/12/13 10:45:57;;;;;;;21.95;11.90;;;;;;;-5.84;94.43;96469.72;5037769;28;20052;-59
2022/12/13 10:48:34;;;;;;;28.23;11.27;;;;;;;-5.82;94.62;96470.41;5039169;28;20084;-58
2022/12/13 10:51:12;;;;;;;28.13;12.68;;;;;;;-5.85;93.17;96473.38;5040960;28;20041;-59
2022/12/13 10:53:48;;;;;;;20.23;11.07;;;;;;;-5.69;93.07;96468.03;5031853;28;20036;-59
2022/12/13 10:56:16;;;;;;;20.95;10.50;;;;;;;-5.49;94.25;96454.44;5036711;28;20475;-57
2022/12/13 10:59:07;;;;;;;22.60;11.48;;;;;;;-5.36;92.38;96473.16;5031211;28;20424;-57
2022/12/13 11:01:42;;;;;;;17.15;9.95;;;;;;;-5.42;92.47;96483.59;5041088;28;20047;-58
2022/12/13 11:04:31;;;;;;;28.33;11.18;;;;;;;-5.24;91.15;96478.03;5043533;28;20040;-59
2022/12/13 11:07:00;;;;;;;22.55;10.50;;;;;;;-5.27;91.49;96470.50;5033842;28;20047;-58
2022/12/13 11:09:31;;;;;;;24.13;12.15;;;;;;;-5.41;91.50;96472.88;5049693;28;20044;-58
2022/12/13 11:12:14;;;;;;;20.73;11.95;;;;;;;-5.37;90.66;96463.63;5030726;28;20064;-57
2022/12/13 11:15:05;;;;;;;23.70;12.73;;;;;;;-5.36;90.73;96467.88;5049037;28;20045;-60
2022/12/13 11:17:44;;;;;;;19.05;9.25;;;;;;;-5.38;90.22;96469.88;5038388;28;20045;-59
2022/12/13 11:20:22;;;;;;;23.67;10.68;;;;;;;-5.31;89.42;96466.56;5037289;28;20040;-59
2022/12/13 11:23:03;;;;;;;23.13;11.05;;;;;;;-5.22;88.35;96460.22;5041483;28;20774;-58
2022/12/13 11:25:38;;;;;;;18.48;10.18;;;;;;;-5.11;89.25;96457.19;5029662;28;20068;-59
2022/12/13 11:28:41;;;;;;;15.98;9.20;;;;;;;-5.06;87.63;96455.84;5032171;28;20052;-60
2022/12/13 11:31:09;;;;;;;17.92;9.02;;;;;;;-5.20;87.45;96450.31;5033722;28;20133;-56
2022/12/13 11:33:46;;;;;;;16.55;9.10;;;;;;;-5.10;88.25;96450.06;5042632;28;20493;-57
2022/12/13 11:36:55;;;;;;;21.05;9.88;;;;;;;-5.06;87.23;96440.81;5052063;28;20044;-54
2022/12/13 11:39:35;;;;;;;15.73;8.65;;;;;;;-4.89;86.39;96427.50;5059232;28;20048;-56